createdAt,value
2019-03-20T00:00:11.183Z,85.76
2019-03-20T00:02:42.412Z,85.60
2019-03-20T00:05:14.201Z,85.12
2019-03-20T00:07:45.409Z,85.60
2019-03-20T00:10:17.036Z,85.96
2019-03-20T00:12:48.550Z,85.98
2019-03-20T00:15:19.840Z,85.85
2019-03-20T00:17:51.006Z,85.94
2019-03-20T00:20:22.187Z,85.59
2019-03-20T00:22:53.559Z,85.28
2019-03-20T00:25:24.781Z,85.71
2019-03-20T00:27:59.042Z,86.12
2019-03-20T00:30:30.248Z,86.28
2019-03-20T00:33:01.437Z,86.13
2019-03-20T00:35:32.707Z,85.87
2019-03-20T00:38:03.994Z,85.69
2019-03-20T00:40:35.120Z,85.36
2019-03-20T00:43:26.749Z,85.75
2019-03-20T00:45:58.078Z,85.71
2019-03-20T00:48:30.610Z,85.81
2019-03-20T00:51:02.058Z,85.70
2019-03-20T00:53:35.394Z,85.94
2019-03-20T00:56:06.642Z,86.36
2019-03-20T00:58:39.685Z,86.58
2019-03-20T01:01:10.742Z,86.00
2019-03-20T01:03:41.846Z,86.00
2019-03-20T01:06:13.068Z,86.31
2019-03-20T01:08:44.122Z,86.37
2019-03-20T01:11:16.441Z,86.03
2019-03-20T01:13:48.068Z,86.01
2019-03-20T01:16:19.190Z,86.43
2019-03-20T01:18:50.245Z,86.41
2019-03-20T01:21:21.489Z,86.66
2019-03-20T01:23:52.523Z,86.36
2019-03-20T01:26:23.732Z,86.85
2019-03-20T01:28:54.848Z,87.11
2019-03-20T01:31:26.005Z,87.13
2019-03-20T01:33:57.525Z,87.03
2019-03-20T01:36:28.645Z,86.89
2019-03-20T01:39:00.852Z,86.65
2019-03-20T01:41:38.046Z,86.63
2019-03-20T01:44:04.905Z,86.54
2019-03-20T01:46:36.128Z,86.93
2019-03-20T01:49:07.251Z,87.35
2019-03-20T01:51:38.531Z,87.30
2019-03-20T01:54:09.662Z,87.08
2019-03-20T01:56:40.890Z,86.87
2019-03-20T01:59:12.435Z,86.86
2019-03-20T02:01:43.859Z,86.79
2019-03-20T02:04:15.059Z,87.12
2019-03-20T02:06:46.431Z,87.12
2019-03-20T02:09:17.550Z,86.98
2019-03-20T02:11:48.884Z,87.15
2019-03-20T02:14:20.111Z,87.03
2019-03-20T02:16:51.686Z,86.83
2019-03-20T02:19:22.820Z,86.80
2019-03-20T02:21:53.998Z,87.25
2019-03-20T02:24:25.264Z,87.52
2019-03-20T02:26:56.467Z,87.58
2019-03-20T02:29:27.603Z,87.77
2019-03-20T02:31:58.766Z,87.51
2019-03-20T02:34:29.980Z,87.28
2019-03-20T02:37:01.201Z,87.30
2019-03-20T02:39:32.428Z,87.50
2019-03-20T02:42:03.669Z,87.77
2019-03-20T02:44:34.907Z,87.59
2019-03-20T02:47:06.325Z,87.45
2019-03-20T02:49:37.542Z,87.51
2019-03-20T02:52:08.794Z,87.43
2019-03-20T02:54:39.999Z,87.37
2019-03-20T02:57:11.169Z,87.50
2019-03-20T02:59:42.450Z,88.08
2019-03-20T03:02:13.647Z,88.08
2019-03-20T03:04:44.929Z,87.83
2019-03-20T03:07:16.202Z,87.89
2019-03-20T03:09:47.447Z,88.04
2019-03-20T03:12:18.723Z,87.96
2019-03-20T03:14:52.736Z,87.65
2019-03-20T03:17:24.052Z,87.59
2019-03-20T03:19:57.685Z,87.93
2019-03-20T03:22:28.973Z,88.17
2019-03-20T03:25:00.098Z,88.27
2019-03-20T03:27:31.352Z,88.27
2019-03-20T03:30:02.574Z,87.92
2019-03-20T03:32:33.840Z,87.70
2019-03-20T03:35:05.329Z,87.92
2019-03-20T03:37:36.555Z,87.80
2019-03-20T03:40:09.316Z,88.24
2019-03-20T03:42:40.570Z,88.27
2019-03-20T03:45:13.010Z,88.03
2019-03-20T03:47:44.232Z,87.89
2019-03-20T03:50:15.840Z,87.98
2019-03-20T03:52:49.867Z,87.75
2019-03-20T03:55:21.081Z,88.15
2019-03-20T03:57:52.443Z,88.05
2019-03-20T04:00:23.714Z,88.05
2019-03-20T04:02:54.775Z,87.98
2019-03-20T04:05:26.035Z,87.96
2019-03-20T04:07:57.269Z,88.18
2019-03-20T04:10:28.463Z,88.25
2019-03-20T04:12:59.648Z,88.10
2019-03-20T04:15:30.811Z,88.17
2019-03-20T04:18:02.071Z,88.20
2019-03-20T04:20:33.255Z,88.35
2019-03-20T04:23:04.514Z,88.18
2019-03-20T04:25:35.672Z,88.21
2019-03-20T04:28:06.903Z,88.45
2019-03-20T04:30:38.143Z,88.81
2019-03-20T04:33:09.364Z,88.86
2019-03-20T04:35:40.599Z,88.76
2019-03-20T04:38:11.865Z,88.58
2019-03-20T04:40:43.122Z,88.46
2019-03-20T04:43:14.347Z,88.41
2019-03-20T04:45:45.491Z,88.73
2019-03-20T04:48:16.712Z,89.06
2019-03-20T04:50:47.861Z,89.15
2019-03-20T04:53:19.082Z,89.16
2019-03-20T04:55:50.315Z,89.13
2019-03-20T04:58:21.539Z,89.14
2019-03-20T05:00:52.773Z,89.02
2019-03-20T05:03:23.826Z,89.03
2019-03-20T05:05:55.127Z,89.10
2019-03-20T05:08:26.366Z,89.34
2019-03-20T05:10:57.633Z,89.55
2019-03-20T05:13:28.846Z,89.69
2019-03-20T05:16:00.119Z,89.86
2019-03-20T05:18:31.326Z,89.95
2019-03-20T05:21:02.639Z,90.06
2019-03-20T05:23:33.760Z,90.12
2019-03-20T05:26:05.050Z,90.07
2019-03-20T05:28:36.248Z,90.08
2019-03-20T05:31:07.428Z,89.75
2019-03-20T05:33:38.623Z,89.71
2019-03-20T05:36:09.882Z,89.72
2019-03-20T05:38:41.006Z,89.63
2019-03-20T05:41:12.344Z,89.45
2019-03-20T05:43:43.583Z,89.59
2019-03-20T05:46:14.880Z,89.66
2019-03-20T05:48:46.022Z,89.58
2019-03-20T05:51:17.297Z,89.77
2019-03-20T05:53:48.528Z,89.23
2019-03-20T05:56:19.710Z,88.80
2019-03-20T05:58:51.746Z,87.98
2019-03-20T06:01:23.096Z,88.41
2019-03-20T06:03:54.298Z,88.76
2019-03-20T06:06:25.473Z,87.47
2019-03-20T06:08:56.694Z,88.08
2019-03-20T06:11:27.959Z,88.36
2019-03-20T06:13:59.393Z,87.50
2019-03-20T06:16:30.663Z,87.19
2019-03-20T06:19:01.898Z,86.52
2019-03-20T06:21:33.217Z,84.74
2019-03-20T06:24:04.321Z,85.10
2019-03-20T06:26:35.684Z,85.00
2019-03-20T06:29:16.102Z,85.28
2019-03-20T06:31:47.411Z,84.35
2019-03-20T06:34:18.624Z,84.42
2019-03-20T06:36:49.880Z,82.67
2019-03-20T06:39:21.020Z,82.38
2019-03-20T06:41:52.330Z,81.69
2019-03-20T06:44:23.520Z,80.50
2019-03-20T06:46:54.781Z,78.96
2019-03-20T06:49:26.024Z,77.73
2019-03-20T06:51:57.260Z,78.09
2019-03-20T06:54:28.482Z,77.97
2019-03-20T06:56:59.663Z,77.36
2019-03-20T07:00:34.639Z,74.87
2019-03-20T07:03:08.813Z,72.28
2019-03-20T07:06:38.738Z,70.92
2019-03-20T07:10:03.065Z,70.30
2019-03-20T07:12:34.302Z,68.98
2019-03-20T07:15:05.690Z,68.03
2019-03-20T07:17:36.979Z,67.19
2019-03-20T07:20:09.042Z,66.88
2019-03-20T07:22:40.343Z,66.54
2019-03-20T07:25:11.567Z,65.97
2019-03-20T07:27:42.853Z,65.38
2019-03-20T07:30:14.622Z,64.18
2019-03-20T07:32:45.842Z,63.25
2019-03-20T07:35:17.098Z,63.14
2019-03-20T07:37:55.991Z,62.22
2019-03-20T07:40:21.739Z,60.83
2019-03-20T07:42:52.938Z,61.30
2019-03-20T07:45:24.352Z,60.47
2019-03-20T07:47:55.543Z,59.72
2019-03-20T07:50:26.729Z,59.13
2019-03-20T07:52:58.032Z,59.61
2019-03-20T07:55:29.284Z,60.37
2019-03-20T07:58:00.505Z,59.97
2019-03-20T08:00:34.864Z,59.35
2019-03-20T08:03:06.210Z,59.23
2019-03-20T08:05:37.473Z,58.31
2019-03-20T08:08:08.694Z,57.75
2019-03-20T08:10:41.089Z,58.36
2019-03-20T08:13:12.470Z,58.52
2019-03-20T08:15:43.736Z,58.37
2019-03-20T08:18:14.929Z,58.23
2019-03-20T08:20:46.196Z,58.74
2019-03-20T08:23:17.368Z,55.54
2019-03-20T08:25:48.622Z,52.67
2019-03-20T08:28:19.879Z,51.26
2019-03-20T08:30:51.155Z,50.86
2019-03-20T08:33:22.313Z,51.16
2019-03-20T08:35:53.597Z,50.95
2019-03-20T08:38:24.922Z,50.90
2019-03-20T08:40:56.217Z,50.49
2019-03-20T08:43:27.417Z,50.46
2019-03-20T08:45:58.676Z,50.43
2019-03-20T08:48:29.954Z,51.11
2019-03-20T08:51:01.235Z,52.19
2019-03-20T08:53:32.409Z,51.34
2019-03-20T08:56:03.717Z,52.13
2019-03-20T08:58:34.838Z,52.00
2019-03-20T09:01:05.940Z,50.91
2019-03-20T09:03:37.278Z,51.15
2019-03-20T09:06:08.557Z,51.65
2019-03-20T09:08:39.781Z,49.78
2019-03-20T09:11:11.136Z,49.41
2019-03-20T09:13:42.300Z,49.90
2019-03-20T09:16:13.568Z,50.77
2019-03-20T09:18:44.834Z,49.78
2019-03-20T09:21:16.125Z,50.64
2019-03-20T09:23:47.346Z,51.24
2019-03-20T09:26:18.520Z,51.58
2019-03-20T09:28:49.784Z,52.89
2019-03-20T09:31:21.072Z,52.02
2019-03-20T09:33:52.308Z,52.86
2019-03-20T09:36:23.628Z,52.04
2019-03-20T09:38:54.887Z,51.76
2019-03-20T09:41:26.242Z,51.54
2019-03-20T09:43:57.451Z,51.18
2019-03-20T09:46:28.721Z,51.19
2019-03-20T09:48:59.858Z,52.35
2019-03-20T09:51:31.097Z,52.98
2019-03-20T09:54:02.341Z,52.43
2019-03-20T09:56:33.596Z,51.83
2019-03-20T09:59:04.795Z,51.21
2019-03-20T10:01:36.123Z,51.40
2019-03-20T10:04:07.441Z,50.98
2019-03-20T10:06:38.706Z,48.96
2019-03-20T10:09:10.930Z,48.77
2019-03-20T10:11:42.146Z,48.61
2019-03-20T10:14:13.375Z,48.39
2019-03-20T10:16:44.643Z,49.35
2019-03-20T10:19:15.744Z,49.31
2019-03-20T10:21:47.092Z,49.27
2019-03-20T10:24:18.397Z,49.39
2019-03-20T10:26:49.644Z,49.38
2019-03-20T10:29:20.942Z,49.64
2019-03-20T10:31:52.135Z,49.94
2019-03-20T10:34:23.401Z,48.66
2019-03-20T10:36:54.617Z,48.89
2019-03-20T10:39:25.900Z,49.77
2019-03-20T10:41:57.051Z,49.78
2019-03-20T10:44:28.325Z,49.27
2019-03-20T10:46:59.562Z,50.08
2019-03-20T10:49:42.009Z,50.68
2019-03-20T10:52:13.260Z,50.39
2019-03-20T10:54:44.604Z,48.63
2019-03-20T10:57:15.824Z,50.09
2019-03-20T10:59:47.191Z,50.64
2019-03-20T11:02:19.295Z,51.56
2019-03-20T11:04:52.686Z,51.80
2019-03-20T11:07:24.026Z,52.65
2019-03-20T11:09:55.846Z,52.54
2019-03-20T11:12:27.128Z,50.87
2019-03-20T11:14:58.412Z,50.62
2019-03-20T11:17:29.778Z,50.53
2019-03-20T11:20:01.022Z,49.73
2019-03-20T11:22:35.126Z,49.43
2019-03-20T11:25:06.924Z,49.48
2019-03-20T11:27:45.556Z,49.13
2019-03-20T11:30:26.515Z,50.49
2019-03-20T11:32:58.180Z,50.27
2019-03-20T11:35:29.429Z,50.39
2019-03-20T11:38:00.772Z,49.50
2019-03-20T11:40:32.212Z,48.99
2019-03-20T11:43:03.505Z,47.67
2019-03-20T11:45:34.816Z,50.06
2019-03-20T11:48:06.191Z,49.04
2019-03-20T11:50:40.318Z,50.01
2019-03-20T11:53:11.576Z,50.50
2019-03-20T11:55:42.899Z,49.39
2019-03-20T11:58:15.070Z,48.96
2019-03-20T12:00:46.418Z,49.52
2019-03-20T12:03:17.680Z,49.05
2019-03-20T12:05:48.970Z,49.59
2019-03-20T12:08:20.225Z,49.29
2019-03-20T12:10:51.524Z,49.85
2019-03-20T12:13:22.806Z,48.04
2019-03-20T12:15:54.119Z,48.84
2019-03-20T12:18:25.358Z,48.52
2019-03-20T12:20:56.733Z,50.10
2019-03-20T12:23:27.916Z,49.18
2019-03-20T12:25:59.134Z,49.64
2019-03-20T12:28:30.500Z,50.29
2019-03-20T12:31:01.639Z,51.10
2019-03-20T12:33:32.846Z,52.65
2019-03-20T12:36:04.170Z,52.96
2019-03-20T12:38:35.454Z,51.93
2019-03-20T12:41:06.709Z,52.53
2019-03-20T12:43:38.020Z,52.46
2019-03-20T12:46:09.289Z,52.54
2019-03-20T12:48:40.553Z,51.87
2019-03-20T12:51:11.793Z,52.13
2019-03-20T12:53:43.057Z,52.23
2019-03-20T12:56:14.366Z,51.56
2019-03-20T12:58:45.658Z,52.53
2019-03-20T13:01:16.953Z,52.36
2019-03-20T13:03:48.207Z,53.11
2019-03-20T13:06:19.363Z,51.17
2019-03-20T13:08:50.596Z,50.01
2019-03-20T13:11:22.019Z,51.05
2019-03-20T13:13:53.249Z,52.38
2019-03-20T13:16:24.494Z,53.09
2019-03-20T13:18:55.727Z,53.14
2019-03-20T13:21:27.031Z,52.66
2019-03-20T13:23:58.254Z,51.80
2019-03-20T13:26:29.543Z,51.72
2019-03-20T13:29:00.719Z,51.38
2019-03-20T13:31:31.993Z,51.40
2019-03-20T13:34:03.235Z,52.03
2019-03-20T13:36:34.506Z,52.72
2019-03-20T13:39:07.923Z,52.27
2019-03-20T13:41:39.210Z,52.27
2019-03-20T13:44:10.507Z,51.01
2019-03-20T13:46:41.821Z,51.21
2019-03-20T13:49:12.970Z,51.71
2019-03-20T13:51:44.173Z,51.41
2019-03-20T13:54:15.421Z,53.43
2019-03-20T13:56:46.609Z,53.11
2019-03-20T13:59:17.854Z,53.03
2019-03-20T14:01:49.102Z,53.34
2019-03-20T14:04:20.355Z,53.57
2019-03-20T14:06:51.645Z,53.67
2019-03-20T14:09:22.900Z,52.86
2019-03-20T14:11:54.085Z,54.27
2019-03-20T14:14:25.225Z,53.91
2019-03-20T14:17:15.440Z,53.92
2019-03-20T14:19:46.730Z,53.52
2019-03-20T14:22:17.972Z,54.42
2019-03-20T14:24:49.287Z,54.43
2019-03-20T14:27:20.447Z,54.27
2019-03-20T14:29:51.734Z,54.75
2019-03-20T14:32:23.197Z,56.11
2019-03-20T14:34:54.473Z,56.24
2019-03-20T14:37:25.736Z,56.15
2019-03-20T14:39:56.974Z,55.82
2019-03-20T14:42:28.253Z,55.41
2019-03-20T14:44:59.474Z,55.82
2019-03-20T14:47:30.681Z,55.68
2019-03-20T14:50:01.905Z,55.38
2019-03-20T14:52:33.240Z,56.46
2019-03-20T14:55:04.623Z,56.64
2019-03-20T14:57:35.997Z,56.39
2019-03-20T15:00:09.855Z,56.87
2019-03-20T15:02:41.213Z,57.83
2019-03-20T15:05:12.766Z,56.82
2019-03-20T15:07:44.067Z,57.35
2019-03-20T15:10:17.883Z,58.32
2019-03-20T15:12:49.310Z,58.81
2019-03-20T15:15:41.025Z,60.73
2019-03-20T15:18:18.833Z,59.16
2019-03-20T15:20:50.238Z,59.72
2019-03-20T15:23:21.600Z,59.87
2019-03-20T15:25:53.294Z,59.96
2019-03-20T15:28:24.574Z,59.13
2019-03-20T15:30:55.950Z,59.84
2019-03-20T15:33:27.240Z,60.11
2019-03-20T15:35:59.553Z,59.59
2019-03-20T15:38:30.845Z,59.09
2019-03-20T15:41:02.364Z,59.49
2019-03-20T15:43:34.363Z,58.98
2019-03-20T15:46:06.374Z,59.44
2019-03-20T15:48:37.659Z,59.82
2019-03-20T15:51:10.088Z,60.01
2019-03-20T15:53:42.677Z,59.44
2019-03-20T15:56:13.910Z,58.67
2019-03-20T15:58:46.065Z,58.42
2019-03-20T16:01:17.244Z,58.56
2019-03-20T16:03:48.493Z,58.13
2019-03-20T16:06:19.794Z,57.31
2019-03-20T16:08:50.995Z,57.25
2019-03-20T16:11:22.181Z,58.62
2019-03-20T16:13:53.431Z,59.03
2019-03-20T16:16:24.664Z,58.73
2019-03-20T16:18:55.891Z,59.03
2019-03-20T16:21:27.051Z,58.90
2019-03-20T16:23:58.230Z,59.57
2019-03-20T16:26:29.473Z,59.60
2019-03-20T16:29:00.801Z,59.80
2019-03-20T16:31:32.041Z,60.00
2019-03-20T16:34:03.288Z,59.31
2019-03-20T16:36:34.514Z,58.60
2019-03-20T16:39:08.400Z,58.46
2019-03-20T16:41:39.624Z,58.56
2019-03-20T16:44:10.861Z,59.00
2019-03-20T16:46:42.116Z,58.57
2019-03-20T16:49:13.331Z,58.09
2019-03-20T16:51:44.619Z,58.03
2019-03-20T16:54:15.843Z,58.90
2019-03-20T16:56:47.058Z,58.94
2019-03-20T16:59:18.205Z,59.03
2019-03-20T17:01:49.530Z,59.54
2019-03-20T17:04:20.675Z,59.78
2019-03-20T17:06:51.977Z,60.30
2019-03-20T17:09:23.206Z,60.58
2019-03-20T17:12:14.274Z,60.96
2019-03-20T17:17:34.430Z,61.68
2019-03-20T17:20:06.498Z,62.77
2019-03-20T17:22:41.920Z,63.01
2019-03-20T17:25:11.474Z,64.14
2019-03-20T17:27:42.806Z,64.98
2019-03-20T17:30:18.412Z,65.88
2019-03-20T17:32:49.604Z,67.09
2019-03-20T17:35:20.965Z,67.74
2019-03-20T17:37:52.247Z,68.16
2019-03-20T17:40:23.708Z,68.79
2019-03-20T17:42:54.908Z,69.41
2019-03-20T17:45:26.712Z,69.95
2019-03-20T17:47:58.118Z,70.80
2019-03-20T17:50:30.478Z,71.29
2019-03-20T17:53:02.059Z,71.93
2019-03-20T17:55:33.494Z,72.39
2019-03-20T17:58:04.882Z,72.71
2019-03-20T18:00:41.835Z,73.22
2019-03-20T18:03:13.174Z,73.78
2019-03-20T18:05:44.457Z,74.31
2019-03-20T18:08:15.769Z,74.58
2019-03-20T18:10:47.202Z,74.97
2019-03-20T18:13:18.477Z,75.43
2019-03-20T18:15:49.759Z,75.64
2019-03-20T18:18:21.009Z,76.21
2019-03-20T18:20:52.428Z,76.62
2019-03-20T18:23:23.749Z,77.04
2019-03-20T18:25:54.995Z,77.41
2019-03-20T18:28:26.292Z,77.79
2019-03-20T18:30:57.644Z,78.26
2019-03-20T18:33:28.992Z,78.55
2019-03-20T18:36:00.254Z,78.97
2019-03-20T18:38:31.636Z,78.94
2019-03-20T18:41:02.916Z,79.21
2019-03-20T18:43:34.332Z,79.55
2019-03-20T18:46:05.592Z,79.88
2019-03-20T18:48:36.845Z,80.36
2019-03-20T18:51:08.128Z,80.37
2019-03-20T18:53:39.355Z,80.71
2019-03-20T18:56:10.714Z,81.00
2019-03-20T18:58:41.964Z,81.17
2019-03-20T19:01:13.148Z,81.63
2019-03-20T19:03:46.510Z,81.70
2019-03-20T19:06:23.176Z,82.05
2019-03-20T19:08:54.508Z,82.04
2019-03-20T19:11:25.775Z,81.64
2019-03-20T19:13:56.914Z,81.74
2019-03-20T19:16:28.196Z,81.98
2019-03-20T19:18:59.431Z,82.19
2019-03-20T19:21:30.714Z,82.27
2019-03-20T19:24:01.972Z,82.24
2019-03-20T19:26:33.278Z,81.36
2019-03-20T19:29:07.244Z,81.28
2019-03-20T19:31:38.523Z,80.91
2019-03-20T19:34:09.848Z,80.65
2019-03-20T19:36:41.140Z,80.31
2019-03-20T19:39:12.397Z,79.22
2019-03-20T19:41:43.616Z,78.21
2019-03-20T19:44:14.896Z,78.47
2019-03-20T19:46:46.115Z,78.47
2019-03-20T19:49:17.470Z,77.59
2019-03-20T19:51:48.816Z,77.44
2019-03-20T19:54:20.073Z,77.41
2019-03-20T19:56:51.216Z,77.60
2019-03-20T19:59:22.522Z,77.66
2019-03-20T20:01:53.749Z,77.63
2019-03-20T20:04:25.191Z,77.52
2019-03-20T20:06:56.455Z,77.39
2019-03-20T20:09:27.662Z,77.38
2019-03-20T20:11:58.922Z,77.33
2019-03-20T20:14:30.385Z,77.25
2019-03-20T20:17:01.713Z,76.97
2019-03-20T20:19:33.141Z,76.60
2019-03-20T20:22:04.498Z,76.75
2019-03-20T20:24:35.691Z,76.82
2019-03-20T20:27:06.991Z,76.91
2019-03-20T20:29:38.264Z,77.37
2019-03-20T20:32:09.746Z,77.37
2019-03-20T20:34:43.435Z,77.68
2019-03-20T20:37:16.124Z,77.84
2019-03-20T20:39:48.024Z,78.07
2019-03-20T20:42:21.172Z,78.27
2019-03-20T20:44:52.638Z,78.45
2019-03-20T20:47:24.088Z,78.79
2019-03-20T20:49:55.274Z,79.21
2019-03-20T20:52:26.531Z,79.20
2019-03-20T20:54:57.773Z,78.58
2019-03-20T20:57:29.024Z,78.33
2019-03-20T21:00:03.189Z,78.68
2019-03-20T21:02:34.619Z,79.10
2019-03-20T21:05:06.256Z,79.50
2019-03-20T21:07:40.628Z,79.96
2019-03-20T21:10:15.167Z,80.23
2019-03-20T21:12:55.537Z,80.52
2019-03-20T21:15:56.847Z,81.29
2019-03-20T21:19:39.366Z,81.43
2019-03-20T21:23:04.852Z,82.26
2019-03-20T21:25:37.097Z,82.70
2019-03-20T21:29:08.241Z,83.10
2019-03-20T21:31:59.184Z,83.84
2019-03-20T21:36:06.114Z,84.21
2019-03-20T21:38:38.135Z,84.53
2019-03-20T21:42:03.358Z,85.57
2019-03-20T21:45:44.932Z,85.79
2019-03-20T21:48:17.038Z,85.44
2019-03-20T21:51:12.602Z,85.32
2019-03-20T21:54:40.159Z,85.83
2019-03-20T21:58:07.250Z,86.16
2019-03-20T22:01:40.042Z,85.74
2019-03-20T22:04:12.066Z,85.16
2019-03-20T22:07:15.089Z,85.76
2019-03-20T22:10:56.500Z,85.73
2019-03-20T22:14:06.060Z,85.78
2019-03-20T22:18:00.120Z,86.45
2019-03-20T22:20:54.577Z,86.77
2019-03-20T22:24:10.578Z,86.61
2019-03-20T22:27:24.324Z,86.42
2019-03-20T22:29:56.405Z,86.54
2019-03-20T22:33:34.739Z,86.46
2019-03-20T22:36:15.616Z,86.49
2019-03-20T22:39:40.536Z,87.24
2019-03-20T22:42:37.434Z,87.24
2019-03-20T22:46:11.492Z,87.48
2019-03-20T22:49:44.969Z,87.38
2019-03-20T22:52:51.443Z,87.49
2019-03-20T22:55:51.904Z,87.88
2019-03-20T22:58:46.197Z,87.29
2019-03-20T23:01:53.925Z,87.36
2019-03-20T23:04:34.701Z,87.58
2019-03-20T23:07:06.907Z,87.51
2019-03-20T23:09:38.980Z,87.44
2019-03-20T23:12:14.679Z,87.84
2019-03-20T23:14:46.593Z,87.88
2019-03-20T23:17:18.664Z,87.74
2019-03-20T23:19:51.848Z,87.98
2019-03-20T23:22:23.813Z,88.09
2019-03-20T23:25:08.145Z,88.22
2019-03-20T23:27:40.150Z,88.38
2019-03-20T23:30:17.659Z,88.18
2019-03-20T23:32:49.606Z,88.29
2019-03-20T23:35:22.380Z,88.40
2019-03-20T23:37:54.391Z,87.90
2019-03-20T23:40:26.551Z,87.77
2019-03-20T23:42:59.487Z,87.96
2019-03-20T23:45:36.256Z,88.30
2019-03-20T23:48:18.040Z,88.33
2019-03-20T23:50:51.871Z,88.20
2019-03-20T23:53:23.886Z,87.69
2019-03-20T23:55:55.880Z,87.89
2019-03-20T23:58:28.018Z,88.34
